Time;durP1;ratioP1;P1;durP2;ratioP2;P2;SDS_P1;SDS_P2;PMS_P1;PMS_P2;Temp;Humidity;BMP_temperature;BMP_pressure;BME280_temperature;BME280_humidity;BME280_pressure;Samples;Min_cycle;Max_cycle;Signal;HPM_P1;HPM_P2
2022/07/14 00:02:16;;;;;;;2.73;1.90;;;19.70;99.90;;;;;;4951784;28;20562;-74
2022/07/14 00:04:41;;;;;;;2.17;2.07;;;19.60;99.90;;;;;;4951849;28;20196;-74
2022/07/14 00:07:07;;;;;;;3.73;1.70;;;19.60;99.90;;;;;;4952941;28;20183;-75
2022/07/14 00:09:33;;;;;;;2.37;1.60;;;19.60;99.90;;;;;;4951222;28;20189;-74
2022/07/14 00:11:58;;;;;;;2.23;2.03;;;19.60;99.90;;;;;;4951448;28;20209;-73
2022/07/14 00:14:24;;;;;;;2.83;2.63;;;19.60;99.90;;;;;;4949860;28;20213;-75
2022/07/14 00:16:50;;;;;;;2.40;1.97;;;19.60;99.90;;;;;;4950774;28;20192;-74
2022/07/14 00:19:17;;;;;;;4.07;1.80;;;19.60;99.90;;;;;;4951413;28;20177;-74
2022/07/14 00:21:43;;;;;;;1.90;1.53;;;19.60;99.90;;;;;;4950623;28;20518;-74
2022/07/14 00:24:11;;;;;;;1.47;1.37;;;19.50;99.90;;;;;;4949534;28;20929;-74
2022/07/14 00:26:39;;;;;;;3.00;1.50;;;19.50;99.90;;;;;;4950865;28;20267;-75
2022/07/14 00:29:05;;;;;;;5.13;1.60;;;19.50;99.90;;;;;;4952488;28;20448;-74
2022/07/14 00:31:31;;;;;;;5.33;2.03;;;19.50;99.90;;;;;;4950146;28;20475;-74
2022/07/14 00:33:56;;;;;;;1.87;1.60;;;19.40;99.90;;;;;;4951651;28;20471;-74
2022/07/14 00:36:22;;;;;;;3.40;1.70;;;19.40;99.90;;;;;;4950889;28;20235;-74
2022/07/14 00:38:47;;;;;;;1.90;1.80;;;19.30;99.90;;;;;;4952514;28;20681;-75
2022/07/14 00:41:13;;;;;;;2.20;1.30;;;19.30;99.90;;;;;;4950549;28;20884;-72
2022/07/14 00:43:38;;;;;;;1.80;1.70;;;19.30;99.90;;;;;;4951516;28;20752;-74
2022/07/14 00:46:04;;;;;;;1.90;1.47;;;19.30;99.90;;;;;;4950795;28;20717;-74
2022/07/14 00:48:30;;;;;;;2.57;1.67;;;19.30;99.90;;;;;;4950935;29;20538;-74
2022/07/14 00:50:55;;;;;;;1.47;1.37;;;19.30;99.90;;;;;;4950179;28;20198;-74
2022/07/14 00:53:21;;;;;;;2.63;1.20;;;19.30;99.90;;;;;;4950800;28;20673;-74
2022/07/14 00:55:47;;;;;;;3.00;1.60;;;19.20;99.90;;;;;;4936186;28;20188;-75
2022/07/14 00:58:12;;;;;;;1.30;1.20;;;19.20;99.90;;;;;;4951502;28;20682;-73
2022/07/14 02:31:16;;;;;;;4.97;1.80;;;17.00;99.90;;;;;;5870379;23;20505;-76
2022/07/14 02:33:42;;;;;;;2.00;1.87;;;16.90;99.90;;;;;;4952671;28;20492;-76
2022/07/14 02:36:08;;;;;;;4.57;1.60;;;16.90;99.90;;;;;;4952950;28;20409;-76
2022/07/14 02:38:34;;;;;;;2.57;1.90;;;16.90;99.90;;;;;;4953429;28;20211;-74
2022/07/14 02:40:59;;;;;;;2.53;1.67;;;16.80;99.90;;;;;;4948688;28;20515;-75
2022/07/14 02:43:26;;;;;;;3.57;2.07;;;16.80;99.90;;;;;;4931993;29;20190;-75
2022/07/14 02:45:51;;;;;;;2.30;2.10;;;16.70;99.90;;;;;;4931855;29;20188;-75
2022/07/14 02:48:17;;;;;;;2.07;1.90;;;16.70;99.90;;;;;;4920283;29;20446;-75
2022/07/14 02:50:43;;;;;;;1.70;1.60;;;16.70;99.90;;;;;;4929270;29;20221;-76
2022/07/14 02:53:08;;;;;;;1.63;1.53;;;16.60;99.90;;;;;;4925137;29;20289;-76
2022/07/14 02:55:35;;;;;;;2.00;1.37;;;16.60;99.90;;;;;;4933172;29;20670;-75
2022/07/14 02:58:00;;;;;;;3.37;1.50;;;16.50;99.90;;;;;;4928001;29;20190;-76
2022/07/14 03:00:26;;;;;;;2.53;1.60;;;16.50;99.90;;;;;;4925477;29;20525;-75
2022/07/14 03:02:52;;;;;;;3.53;1.53;;;16.40;99.90;;;;;;4917984;29;20769;-75
2022/07/14 03:05:18;;;;;;;4.70;1.43;;;16.40;99.90;;;;;;4926763;29;20540;-75
2022/07/14 03:07:43;;;;;;;1.57;1.47;;;16.40;99.90;;;;;;4936796;29;20197;-76
2022/07/14 03:10:09;;;;;;;1.67;1.60;;;16.30;99.90;;;;;;4934086;29;20200;-75
2022/07/14 03:12:35;;;;;;;1.77;1.67;;;16.30;99.90;;;;;;4935839;29;20181;-75
2022/07/14 03:15:01;;;;;;;1.70;1.60;;;16.20;99.90;;;;;;4931873;29;20233;-76
2022/07/14 03:17:27;;;;;;;2.57;1.53;;;16.20;99.90;;;;;;4932150;29;20827;-76
2022/07/14 03:19:52;;;;;;;2.03;1.70;;;16.20;99.90;;;;;;4931769;29;20237;-73
2022/07/14 03:22:18;;;;;;;2.87;1.97;;;16.20;99.90;;;;;;4935495;29;20441;-75
2022/07/14 03:24:44;;;;;;;2.27;1.60;;;16.10;99.90;;;;;;4934141;29;20552;-75
2022/07/14 03:27:09;;;;;;;2.63;1.60;;;16.10;99.90;;;;;;4933545;29;20667;-76
2022/07/14 03:29:35;;;;;;;2.67;2.10;;;16.10;99.90;;;;;;4935625;29;20241;-75
2022/07/14 03:32:00;;;;;;;3.07;1.77;;;16.00;99.90;;;;;;4932005;29;20275;-75
2022/07/14 03:34:26;;;;;;;1.83;1.50;;;16.00;99.90;;;;;;4931787;29;20216;-75
2022/07/14 03:36:52;;;;;;;3.13;1.80;;;15.90;99.90;;;;;;4934036;29;20620;-75
2022/07/14 03:39:17;;;;;;;2.33;2.23;;;15.90;99.90;;;;;;4935597;29;20216;-75
2022/07/14 03:41:43;;;;;;;3.80;1.90;;;15.90;99.90;;;;;;4933331;29;20205;-75
2022/07/14 03:44:08;;;;;;;2.40;1.87;;;15.80;99.90;;;;;;4935576;29;20658;-75
2022/07/14 03:46:34;;;;;;;2.63;2.43;;;15.80;99.90;;;;;;4931568;29;20208;-74
2022/07/14 03:49:00;;;;;;;2.90;1.70;;;15.80;99.90;;;;;;4935416;29;20189;-73
2022/07/14 03:51:25;;;;;;;3.03;1.83;;;15.80;99.90;;;;;;4930591;29;20205;-75
2022/07/14 03:53:51;;;;;;;3.10;1.73;;;15.80;99.90;;;;;;4929670;29;20465;-75
2022/07/14 03:56:16;;;;;;;1.97;1.87;;;15.80;99.90;;;;;;4935543;29;20638;-75
2022/07/14 03:58:43;;;;;;;2.30;1.60;;;15.80;99.90;;;;;;4931303;29;20188;-75
2022/07/14 04:01:08;;;;;;;2.77;1.60;;;15.80;99.90;;;;;;4925809;29;20209;-75
2022/07/14 04:03:34;;;;;;;3.17;1.83;;;15.80;99.90;;;;;;4933645;29;20444;-74
2022/07/14 04:05:59;;;;;;;3.23;1.83;;;15.80;99.90;;;;;;4936098;29;20181;-74
2022/07/14 04:08:25;;;;;;;2.23;1.57;;;15.80;99.90;;;;;;4933909;29;20190;-75
2022/07/14 04:10:50;;;;;;;1.63;1.53;;;15.80;99.90;;;;;;4932260;29;20193;-74
2022/07/14 04:13:16;;;;;;;2.83;1.90;;;15.80;99.90;;;;;;4934380;29;20220;-72
2022/07/14 04:15:42;;;;;;;1.77;1.67;;;15.90;99.90;;;;;;4932758;29;20241;-73
2022/07/14 04:18:08;;;;;;;1.73;1.50;;;15.90;99.90;;;;;;4934526;29;20217;-71
2022/07/14 04:20:33;;;;;;;2.27;2.07;;;15.90;99.90;;;;;;4930190;29;20192;-70
2022/07/14 04:22:59;;;;;;;4.30;2.03;;;15.90;99.90;;;;;;4934840;29;20421;-72
2022/07/14 04:25:25;;;;;;;2.83;1.60;;;15.90;99.90;;;;;;4932813;29;20189;-72
2022/07/14 04:27:51;;;;;;;1.87;1.77;;;16.00;99.90;;;;;;4935089;29;20421;-72
2022/07/14 04:30:17;;;;;;;1.90;1.80;;;16.10;99.90;;;;;;4928432;28;20714;-72
2022/07/14 04:32:43;;;;;;;4.63;2.00;;;16.10;99.90;;;;;;4915185;29;20217;-72
2022/07/14 04:35:09;;;;;;;2.60;2.10;;;16.10;99.90;;;;;;4921123;29;20220;-70
2022/07/14 04:37:35;;;;;;;1.80;1.70;;;16.10;99.90;;;;;;4934676;28;20182;-69
2022/07/14 04:40:00;;;;;;;2.87;1.73;;;16.20;99.90;;;;;;4931876;29;20599;-70
2022/07/14 04:42:26;;;;;;;3.10;1.80;;;16.20;99.90;;;;;;4931521;29;20261;-70
2022/07/14 04:44:51;;;;;;;1.70;1.60;;;16.20;99.90;;;;;;4934365;29;20702;-70
2022/07/14 04:47:17;;;;;;;2.90;1.80;;;16.30;99.90;;;;;;4931597;28;20189;-71
2022/07/14 04:52:27;;;;;;;5.20;2.20;;;16.40;99.90;;;;;;4929922;29;20215;-70
2022/07/14 04:54:53;;;;;;;2.03;1.83;;;16.50;99.90;;;;;;4934803;29;20921;-69
2022/07/14 04:57:19;;;;;;;5.40;1.70;;;16.60;99.90;;;;;;4921994;29;20190;-72
2022/07/14 04:59:45;;;;;;;4.93;2.50;;;16.70;99.90;;;;;;4931278;28;20192;-72
2022/07/14 05:02:10;;;;;;;2.80;2.30;;;16.80;99.90;;;;;;4927620;29;20485;-72
2022/07/14 05:04:36;;;;;;;3.40;2.00;;;17.00;99.90;;;;;;4934079;29;20847;-72
2022/07/14 05:07:02;;;;;;;1.60;1.33;;;17.10;99.90;;;;;;4930096;29;20862;-72
2022/07/14 05:09:32;;;;;;;1.93;1.80;;;17.20;99.90;;;;;;4915878;29;20178;-71
2022/07/14 05:11:57;;;;;;;1.70;1.60;;;17.50;99.90;;;;;;4915896;29;20430;-71
2022/07/14 05:14:23;;;;;;;2.23;1.60;;;17.90;99.90;;;;;;4932357;29;20473;-73
2022/07/14 05:16:48;;;;;;;2.70;2.50;;;18.40;99.90;;;;;;4930968;29;20276;-74
2022/07/14 05:19:15;;;;;;;3.27;2.50;;;19.10;99.90;;;;;;4927747;29;20181;-73
2022/07/14 05:21:41;;;;;;;5.27;2.10;;;19.90;99.90;;;;;;4930272;29;20205;-74
2022/07/14 05:24:07;;;;;;;3.13;1.50;;;20.50;99.90;;;;;;4929830;29;20445;-74
2022/07/14 05:26:32;;;;;;;2.97;2.43;;;21.20;99.90;;;;;;4932274;29;20185;-73
2022/07/14 05:28:58;;;;;;;1.80;1.70;;;21.70;99.90;;;;;;4930041;29;20193;-74
2022/07/14 05:31:23;;;;;;;3.53;2.40;;;22.40;99.90;;;;;;4930795;28;20224;-75
2022/07/14 05:33:49;;;;;;;1.87;1.70;;;22.70;99.90;;;;;;4931855;29;20272;-75
2022/07/14 05:36:14;;;;;;;1.90;1.73;;;22.80;99.90;;;;;;4929883;29;20181;-75
2022/07/14 05:38:40;;;;;;;2.17;1.60;;;23.10;99.90;;;;;;4938573;29;20689;-74
2022/07/14 05:41:06;;;;;;;2.00;1.80;;;23.30;99.90;;;;;;4930988;29;20205;-75
2022/07/14 05:43:31;;;;;;;1.90;1.70;;;23.60;99.90;;;;;;4933494;29;20425;-75
2022/07/14 05:46:04;;;;;;;4.60;2.10;;;23.60;99.90;;;;;;4926663;29;20673;-75
2022/07/14 05:48:30;;;;;;;3.47;2.17;;;23.90;99.90;;;;;;4932519;29;20184;-73
2022/07/14 05:51:03;;;;;;;2.40;1.63;;;24.30;99.90;;;;;;4925882;29;20479;-75
2022/07/14 05:53:28;;;;;;;4.23;2.63;;;24.70;99.90;;;;;;4932677;29;20509;-75
2022/07/14 05:55:54;;;;;;;5.53;2.10;;;24.90;99.90;;;;;;4930961;29;20473;-74
2022/07/14 05:58:19;;;;;;;2.80;1.90;;;25.00;99.90;;;;;;4927401;29;20185;-75
2022/07/14 06:00:45;;;;;;;2.83;2.20;;;25.10;99.90;;;;;;4930374;29;20195;-75
2022/07/14 06:03:10;;;;;;;2.17;1.77;;;25.40;99.90;;;;;;4933218;28;20189;-75
2022/07/14 06:05:36;;;;;;;9.00;3.37;;;25.70;99.90;;;;;;4931809;29;20642;-75
2022/07/14 06:08:01;;;;;;;1.93;1.53;;;26.20;99.90;;;;;;4929867;29;20189;-75
2022/07/14 06:10:27;;;;;;;7.77;1.90;;;26.40;99.90;;;;;;4931656;29;20193;-76
2022/07/14 06:12:53;;;;;;;3.70;1.87;;;26.60;99.90;;;;;;4930215;29;20233;-73
2022/07/14 06:15:18;;;;;;;2.17;1.60;;;26.80;99.90;;;;;;4930958;29;20260;-75
2022/07/14 06:17:44;;;;;;;8.07;1.83;;;27.00;99.90;;;;;;4928960;29;20192;-75
2022/07/14 06:20:10;;;;;;;5.20;1.70;;;27.20;99.90;;;;;;4931415;29;20646;-75
2022/07/14 06:22:37;;;;;;;3.27;2.57;;;27.30;99.90;;;;;;4930885;29;20208;-77
2022/07/14 06:25:03;;;;;;;7.30;1.90;;;27.40;99.90;;;;;;4932057;29;20823;-75
2022/07/14 06:27:29;;;;;;;8.90;2.37;;;27.60;99.90;;;;;;4932324;29;20417;-75
2022/07/14 06:29:54;;;;;;;5.30;2.07;;;27.70;99.90;;;;;;4929803;29;20508;-74
2022/07/14 06:32:20;;;;;;;7.03;2.10;;;27.90;99.90;;;;;;4927668;29;20225;-76
2022/07/14 06:34:46;;;;;;;2.93;1.70;;;28.20;99.90;;;;;;4933155;29;20297;-75
2022/07/14 06:37:11;;;;;;;3.60;2.23;;;28.40;99.90;;;;;;4936853;29;20421;-75
2022/07/14 06:39:37;;;;;;;3.30;1.53;;;28.30;99.90;;;;;;4933546;29;20294;-75
2022/07/14 06:42:03;;;;;;;3.20;1.70;;;28.30;99.90;;;;;;4935015;29;20267;-76
2022/07/14 06:44:29;;;;;;;3.20;2.47;;;28.50;99.90;;;;;;4934832;29;20342;-76
2022/07/14 06:46:55;;;;;;;2.40;2.17;;;28.60;99.90;;;;;;4929921;29;20480;-75
2022/07/14 06:49:21;;;;;;;10.33;1.97;;;28.70;99.90;;;;;;4934917;29;20500;-75
2022/07/14 06:51:47;;;;;;;5.73;1.80;;;28.70;99.90;;;;;;4932479;29;20556;-75
2022/07/14 06:54:12;;;;;;;3.70;2.37;;;28.80;99.90;;;;;;4934674;29;20220;-74
2022/07/14 06:56:38;;;;;;;10.27;2.17;;;29.10;99.90;;;;;;4932922;29;20252;-77
2022/07/14 06:59:03;;;;;;;3.20;2.67;;;29.30;99.90;;;;;;4932407;29;20196;-75
2022/07/14 07:01:29;;;;;;;5.00;3.00;;;29.80;99.90;;;;;;4931209;29;20259;-75
2022/07/14 07:03:54;;;;;;;5.10;2.80;;;30.00;99.90;;;;;;4936054;29;20290;-75
2022/07/14 07:09:04;;;;;;;5.73;2.20;;;30.40;99.90;;;;;;4935575;29;20229;-75
2022/07/14 07:11:29;;;;;;;3.10;2.03;;;30.40;99.90;;;;;;4933344;29;20468;-76
2022/07/14 07:13:55;;;;;;;9.03;1.90;;;30.30;99.90;;;;;;4934037;29;20674;-76
2022/07/14 07:16:20;;;;;;;6.63;2.07;;;30.20;99.90;;;;;;4932096;29;20196;-75
2022/07/14 07:18:46;;;;;;;6.70;2.07;;;30.20;99.90;;;;;;4934923;29;20192;-75
2022/07/14 07:21:14;;;;;;;4.30;1.73;;;30.40;99.90;;;;;;4934999;29;20197;-76
2022/07/14 07:23:44;;;;;;;3.30;1.57;;;30.60;99.90;;;;;;4932402;29;20189;-76
2022/07/14 07:26:10;;;;;;;6.40;2.30;;;30.70;99.90;;;;;;4935869;29;20542;-75
2022/07/14 07:28:36;;;;;;;3.53;1.47;;;30.60;99.90;;;;;;4934095;29;20452;-76
2022/07/14 07:31:01;;;;;;;6.30;2.27;;;30.40;99.90;;;;;;4932974;29;20244;-75
2022/07/14 07:33:27;;;;;;;4.73;2.00;;;30.20;99.90;;;;;;4932361;29;20212;-75
2022/07/14 07:35:53;;;;;;;2.77;1.83;;;30.30;99.90;;;;;;4925468;29;20578;-74
2022/07/14 07:38:19;;;;;;;2.43;1.70;;;30.50;99.90;;;;;;4916690;29;20441;-78
2022/07/14 07:40:47;;;;;;;2.20;1.53;;;30.50;99.90;;;;;;4915919;29;20194;-76
2022/07/14 07:43:12;;;;;;;4.60;1.90;;;30.80;99.90;;;;;;4927275;29;20436;-74
2022/07/14 07:45:38;;;;;;;5.23;1.97;;;30.90;99.90;;;;;;4935512;29;20653;-76
2022/07/14 07:48:04;;;;;;;5.77;2.47;;;31.10;99.90;;;;;;4935535;29;20184;-76
2022/07/14 07:50:30;;;;;;;5.03;2.10;;;31.40;99.90;;;;;;4934990;29;20674;-76
2022/07/14 07:52:56;;;;;;;10.23;2.37;;;31.80;99.90;;;;;;4934714;29;20507;-77
2022/07/14 07:55:21;;;;;;;2.80;2.00;;;32.10;99.90;;;;;;4935313;29;20417;-76
2022/07/14 07:57:47;;;;;;;3.57;1.43;;;32.30;99.90;;;;;;4935437;29;20717;-77
2022/07/14 08:00:13;;;;;;;2.50;1.80;;;32.60;99.90;;;;;;4935076;29;20182;-75
2022/07/14 08:02:52;;;;;;;1.40;1.10;;;32.90;99.90;;;;;;4932830;29;20205;-76
2022/07/14 08:05:20;;;;;;;1.20;1.10;;;32.80;96.70;;;;;;4935060;29;20484;-77
2022/07/14 08:07:45;;;;;;;1.20;1.10;;;32.60;96.50;;;;;;4935382;29;20441;-75
2022/07/14 08:10:11;;;;;;;2.73;1.57;;;32.70;95.70;;;;;;4934488;29;20964;-77
2022/07/14 08:12:38;;;;;;;1.90;1.00;;;33.10;94.60;;;;;;4934202;29;20615;-76
2022/07/14 08:15:06;;;;;;;2.83;1.50;;;33.20;94.00;;;;;;4935033;29;20219;-77
2022/07/14 08:17:31;;;;;;;2.77;1.20;;;33.50;92.30;;;;;;4935285;29;20985;-76
2022/07/14 08:19:57;;;;;;;5.80;1.20;;;33.90;91.60;;;;;;4934620;29;20417;-76
2022/07/14 08:22:26;;;;;;;1.97;0.97;;;34.10;90.60;;;;;;4933987;29;20750;-76
2022/07/14 08:24:53;;;;;;;2.83;0.90;;;34.20;91.10;;;;;;4933922;29;20190;-74
2022/07/14 08:27:19;;;;;;;3.20;1.20;;;34.00;87.90;;;;;;4934699;29;20840;-75
2022/07/14 08:29:44;;;;;;;1.73;1.07;;;34.20;89.50;;;;;;4934928;29;20417;-77
2022/07/14 08:32:10;;;;;;;4.07;0.93;;;34.70;86.90;;;;;;4933326;29;20208;-77
2022/07/14 08:34:36;;;;;;;4.30;1.03;;;34.70;84.70;;;;;;4933867;29;20276;-76
2022/07/14 08:37:02;;;;;;;1.80;0.80;;;34.80;83.60;;;;;;4933565;29;20181;-75
2022/07/14 08:39:28;;;;;;;1.27;1.17;;;35.00;84.00;;;;;;4934950;29;20417;-74
2022/07/14 08:41:56;;;;;;;1.80;1.20;;;35.10;82.70;;;;;;4933480;29;20248;-72
2022/07/14 08:44:24;;;;;;;1.03;1.03;;;35.20;81.40;;;;;;4933861;29;20794;-73
2022/07/14 08:46:50;;;;;;;2.03;1.10;;;35.60;78.30;;;;;;4934702;29;20448;-75
2022/07/14 08:49:16;;;;;;;3.13;1.10;;;35.40;78.20;;;;;;4933929;29;20433;-76
2022/07/14 08:51:44;;;;;;;3.67;1.20;;;35.70;78.50;;;;;;4933631;29;20581;-75
2022/07/14 08:54:10;;;;;;;2.23;1.33;;;35.90;74.70;;;;;;4933750;29;21012;-76
2022/07/14 08:56:36;;;;;;;6.30;1.30;;;36.30;77.80;;;;;;4933360;29;20445;-75
2022/07/14 08:59:02;;;;;;;1.33;1.00;;;36.60;74.40;;;;;;4934350;29;20237;-76
2022/07/14 09:01:28;;;;;;;6.50;1.60;;;36.60;72.20;;;;;;4933713;29;21155;-76
2022/07/14 09:03:54;;;;;;;0.90;0.90;;;36.70;72.80;;;;;;4933888;29;20528;-73
2022/07/14 09:06:52;;;;;;;1.60;1.23;;;37.00;72.40;;;;;;4934045;29;20658;-76
2022/07/14 09:09:21;;;;;;;3.87;1.10;;;37.00;71.60;;;;;;4933578;29;20433;-76
2022/07/14 09:11:50;;;;;;;2.30;0.90;;;37.00;69.20;;;;;;4933419;29;20481;-75
2022/07/14 09:14:16;;;;;;;1.23;1.13;;;37.40;66.60;;;;;;4932567;29;20504;-75
2022/07/14 09:16:41;;;;;;;4.63;1.00;;;37.60;65.20;;;;;;4934327;29;20448;-76
2022/07/14 09:19:09;;;;;;;2.10;0.80;;;37.40;67.00;;;;;;4933893;29;20180;-76
2022/07/14 09:21:37;;;;;;;1.70;1.17;;;37.90;63.10;;;;;;4933315;29;20681;-75
2022/07/14 09:24:05;;;;;;;1.63;0.93;;;38.20;60.60;;;;;;4933090;29;20437;-75
2022/07/14 09:26:33;;;;;;;1.53;0.97;;;38.10;59.60;;;;;;4933958;29;20416;-73
2022/07/14 09:28:59;;;;;;;1.10;1.00;;;37.50;59.50;;;;;;4934003;29;20425;-76
2022/07/14 09:31:25;;;;;;;2.90;0.80;;;37.20;58.80;;;;;;4933557;29;20884;-76
2022/07/14 09:33:53;;;;;;;2.77;1.10;;;36.60;59.30;;;;;;4933017;29;20492;-76
2022/07/14 09:36:28;;;;;;;1.33;1.20;;;37.20;60.90;;;;;;4933518;29;20176;-76
2022/07/14 09:38:57;;;;;;;3.17;1.20;;;37.90;59.10;;;;;;4933858;29;20412;-74
2022/07/14 09:41:24;;;;;;;1.40;0.80;;;38.40;58.20;;;;;;4932805;29;20436;-76
2022/07/14 09:44:05;;;;;;;2.07;0.80;;;38.80;57.90;;;;;;4933451;28;20435;-76
2022/07/14 09:46:43;;;;;;;7.03;1.00;;;38.50;57.00;;;;;;4933257;29;20412;-76
2022/07/14 09:49:09;;;;;;;2.93;1.00;;;38.00;57.20;;;;;;4933419;29;20448;-74
2022/07/14 09:51:54;;;;;;;2.93;0.80;;;38.20;57.10;;;;;;4933006;29;20969;-76
2022/07/14 09:54:55;;;;;;;0.80;0.80;;;38.40;58.40;;;;;;4913863;29;20260;-76
2022/07/14 09:57:24;;;;;;;0.97;0.80;;;39.30;56.20;;;;;;4911844;29;20954;-76
2022/07/14 10:00:08;;;;;;;1.13;0.90;;;39.40;55.70;;;;;;4913830;29;20875;-76
2022/07/14 10:02:36;;;;;;;1.20;1.10;;;39.70;57.40;;;;;;4918349;29;20535;-74
2022/07/14 10:05:02;;;;;;;1.80;1.10;;;40.10;55.80;;;;;;4932810;29;20439;-75
2022/07/14 10:07:32;;;;;;;3.13;1.23;;;40.10;54.90;;;;;;4933512;29;20476;-76
2022/07/14 10:10:12;;;;;;;1.87;0.90;;;40.30;54.90;;;;;;4933259;29;20420;-76
2022/07/14 10:12:41;;;;;;;1.07;0.97;;;39.90;53.80;;;;;;4932472;29;20542;-76
2022/07/14 10:15:11;;;;;;;2.40;1.03;;;40.10;54.30;;;;;;4932735;29;20460;-76
2022/07/14 10:17:38;;;;;;;3.20;1.00;;;40.00;54.30;;;;;;4932770;29;20890;-76
2022/07/14 10:20:06;;;;;;;1.03;1.03;;;40.20;54.40;;;;;;4933057;29;20416;-76
2022/07/14 10:22:32;;;;;;;1.40;1.30;;;40.40;54.10;;;;;;4932794;29;21033;-76
2022/07/14 10:24:58;;;;;;;2.73;1.13;;;40.50;54.60;;;;;;4932542;29;20434;-76
2022/07/14 10:27:27;;;;;;;5.20;1.20;;;40.40;53.50;;;;;;4932761;29;20815;-76
2022/07/14 10:29:56;;;;;;;3.27;0.93;;;40.40;54.00;;;;;;4932894;29;20217;-75
2022/07/14 10:32:40;;;;;;;1.67;0.90;;;40.50;52.80;;;;;;4931974;29;20464;-75
2022/07/14 10:35:27;;;;;;;1.57;1.03;;;40.60;53.10;;;;;;4932720;29;20515;-76
2022/07/14 10:38:14;;;;;;;5.00;1.80;;;40.50;52.30;;;;;;4932776;29;20421;-73
2022/07/14 10:41:16;;;;;;;3.40;1.00;;;39.70;52.70;;;;;;4932543;29;20415;-77
2022/07/14 10:43:52;;;;;;;0.80;0.80;;;39.40;54.00;;;;;;4933024;29;20432;-76
2022/07/14 10:46:40;;;;;;;1.80;1.07;;;39.50;53.50;;;;;;4931772;29;20435;-76
2022/07/14 10:49:08;;;;;;;2.23;1.10;;;40.00;52.30;;;;;;4932923;29;20423;-76
2022/07/14 10:51:42;;;;;;;2.43;0.70;;;40.60;52.70;;;;;;4932233;29;20443;-75
2022/07/14 10:54:11;;;;;;;2.60;0.97;;;40.70;51.20;;;;;;4913186;29;20465;-75
2022/07/14 10:56:39;;;;;;;13.30;1.10;;;40.70;51.90;;;;;;4931076;29;20413;-76
2022/07/14 10:59:26;;;;;;;1.23;0.90;;;40.80;52.30;;;;;;4931437;29;20452;-76
2022/07/14 11:02:10;;;;;;;1.00;1.00;;;40.60;51.40;;;;;;4931148;29;20503;-76
2022/07/14 11:05:04;;;;;;;1.77;1.03;;;40.60;51.40;;;;;;4932635;29;20940;-76
2022/07/14 11:08:02;;;;;;;1.20;1.20;;;40.50;52.10;;;;;;4932997;29;20416;-76
2022/07/14 11:10:28;;;;;;;4.10;1.33;;;40.00;51.40;;;;;;4931957;29;20929;-76
2022/07/14 11:12:59;;;;;;;1.57;1.40;;;39.40;52.50;;;;;;4930741;29;20535;-73
2022/07/14 11:15:41;;;;;;;3.73;1.13;;;38.50;53.90;;;;;;4932122;29;20208;-76
2022/07/14 11:18:21;;;;;;;5.90;1.50;;;38.00;53.80;;;;;;4932526;29;20420;-75
2022/07/14 11:20:59;;;;;;;4.60;1.10;;;38.40;53.80;;;;;;4934657;29;20475;-75
2022/07/14 11:23:30;;;;;;;1.87;1.00;;;38.80;54.40;;;;;;4935690;29;20512;-76
2022/07/14 11:25:59;;;;;;;3.63;1.50;;;38.70;53.90;;;;;;4935064;29;20470;-76
2022/07/14 11:28:38;;;;;;;2.70;1.13;;;38.40;53.70;;;;;;4935937;29;20841;-75
2022/07/14 11:31:23;;;;;;;3.80;1.30;;;38.40;54.10;;;;;;4934992;29;20871;-74
2022/07/14 11:37:01;;;;;;;3.60;1.67;;;38.40;55.20;;;;;;4916634;29;20412;-75
2022/07/14 11:39:36;;;;;;;2.90;1.47;;;38.20;55.80;;;;;;4917644;29;20799;-75
2022/07/14 11:42:11;;;;;;;1.57;1.40;;;38.30;54.20;;;;;;4921839;29;20451;-76
2022/07/14 11:44:40;;;;;;;2.83;1.60;;;38.00;54.40;;;;;;4934899;29;20420;-76
2022/07/14 11:47:24;;;;;;;3.90;1.20;;;38.10;55.50;;;;;;4936444;29;20505;-75
2022/07/14 11:49:59;;;;;;;6.70;1.10;;;38.10;55.60;;;;;;4941198;29;20840;-75
2022/07/14 11:52:30;;;;;;;6.87;1.30;;;38.20;55.10;;;;;;4939236;29;20452;-76
2022/07/14 11:54:58;;;;;;;3.90;1.37;;;37.90;54.90;;;;;;4939954;29;20456;-76
2022/07/14 11:57:23;;;;;;;3.77;1.10;;;37.90;55.60;;;;;;4927667;28;20453;-76
2022/07/14 11:59:49;;;;;;;1.40;1.30;;;37.70;54.90;;;;;;4905944;29;20871;-72
2022/07/14 12:02:18;;;;;;;3.60;1.33;;;37.80;55.50;;;;;;4933024;29;20223;-76
2022/07/14 12:04:59;;;;;;;2.47;1.23;;;37.70;55.40;;;;;;4933226;28;20524;-75
2022/07/14 12:07:41;;;;;;;1.20;1.10;;;37.50;55.20;;;;;;4946091;29;20500;-77
2022/07/14 12:10:07;;;;;;;2.63;1.80;;;37.50;57.10;;;;;;4935787;28;20458;-76
2022/07/14 12:12:43;;;;;;;3.73;2.00;;;37.40;56.90;;;;;;4934552;29;20449;-77
2022/07/14 12:15:09;;;;;;;1.50;1.40;;;37.20;55.80;;;;;;4935738;28;20570;-74
2022/07/14 12:17:50;;;;;;;9.73;1.20;;;37.20;54.90;;;;;;4935772;29;20445;-76
2022/07/14 12:20:16;;;;;;;4.63;2.00;;;36.90;55.30;;;;;;4934860;28;20523;-76
2022/07/14 12:22:50;;;;;;;2.50;1.40;;;36.50;55.80;;;;;;4934640;29;20457;-77
2022/07/14 12:25:25;;;;;;;4.23;1.10;;;36.70;56.30;;;;;;4934766;28;20216;-76
2022/07/14 12:27:51;;;;;;;5.50;1.10;;;36.80;57.00;;;;;;4934459;29;20492;-75
2022/07/14 12:30:17;;;;;;;2.87;1.07;;;36.90;54.90;;;;;;4934616;28;20461;-77
2022/07/14 12:32:42;;;;;;;1.40;1.13;;;36.90;54.80;;;;;;4933922;29;20225;-76
2022/07/14 12:35:08;;;;;;;0.93;0.93;;;36.70;55.00;;;;;;4936814;28;20260;-76
2022/07/14 12:37:34;;;;;;;4.17;1.73;;;36.60;54.60;;;;;;4936311;29;20638;-76
2022/07/14 12:40:00;;;;;;;4.03;1.10;;;36.70;55.30;;;;;;4935460;28;20256;-76
2022/07/14 12:42:26;;;;;;;1.43;1.10;;;36.70;54.70;;;;;;4934304;29;20445;-76
2022/07/14 12:45:00;;;;;;;7.60;1.33;;;36.60;54.40;;;;;;4934788;29;20205;-76
2022/07/14 12:47:26;;;;;;;2.30;1.47;;;36.20;54.70;;;;;;4934920;29;20560;-76
2022/07/14 12:49:51;;;;;;;4.50;1.00;;;35.80;55.50;;;;;;4934674;29;20445;-76
2022/07/14 12:52:17;;;;;;;3.87;1.10;;;35.50;54.90;;;;;;4932847;29;20976;-76
2022/07/14 12:54:43;;;;;;;5.60;1.20;;;35.20;55.50;;;;;;4917864;29;20209;-76
2022/07/14 12:57:23;;;;;;;1.67;1.30;;;35.00;55.70;;;;;;4879743;28;20300;-74
2022/07/14 12:59:49;;;;;;;3.40;1.30;;;34.80;55.90;;;;;;4893730;29;20998;-73
2022/07/14 13:02:24;;;;;;;4.00;1.00;;;34.70;56.20;;;;;;4916713;28;20469;-76
2022/07/14 13:05:00;;;;;;;2.67;1.20;;;34.60;56.10;;;;;;4933857;29;20181;-76
2022/07/14 13:07:32;;;;;;;4.30;1.30;;;34.50;56.30;;;;;;4934320;29;20428;-76
2022/07/14 13:10:04;;;;;;;0.90;0.90;;;34.40;56.30;;;;;;4933156;29;20455;-77
2022/07/14 13:12:29;;;;;;;5.13;1.00;;;34.20;56.00;;;;;;4933468;29;20457;-76
2022/07/14 13:15:00;;;;;;;2.70;1.70;;;34.20;56.30;;;;;;4934823;29;20467;-75
2022/07/14 13:17:54;;;;;;;4.63;1.40;;;34.10;56.90;;;;;;4934614;29;20174;-76
2022/07/14 13:20:47;;;;;;;1.43;1.33;;;33.90;58.20;;;;;;4934959;29;20432;-76
2022/07/14 13:23:34;;;;;;;4.83;1.20;;;33.90;58.90;;;;;;4934964;29;20492;-77
2022/07/14 13:26:17;;;;;;;2.73;1.37;;;33.90;58.80;;;;;;4934703;29;20452;-75
2022/07/14 13:28:45;;;;;;;2.07;1.00;;;33.80;58.00;;;;;;4947349;29;20412;-76
2022/07/14 13:31:20;;;;;;;10.03;1.10;;;33.70;57.70;;;;;;4952908;28;20454;-76
2022/07/14 13:33:47;;;;;;;1.43;1.33;;;33.80;59.20;;;;;;4954378;28;20812;-75
2022/07/14 13:36:15;;;;;;;3.00;1.17;;;33.70;58.90;;;;;;4943846;28;20912;-75
2022/07/14 13:38:43;;;;;;;1.20;1.03;;;33.70;59.00;;;;;;4901618;28;20636;-80
2022/07/14 13:41:12;;;;;;;2.13;1.33;;;33.70;58.70;;;;;;4881111;28;20548;-75
2022/07/14 13:43:40;;;;;;;3.07;1.10;;;33.70;59.90;;;;;;4867166;28;20508;-74
2022/07/14 13:46:07;;;;;;;3.73;1.30;;;33.70;58.50;;;;;;4879751;28;21066;-75
2022/07/14 13:48:34;;;;;;;5.80;1.37;;;33.60;58.90;;;;;;4867727;28;20568;-75
2022/07/14 13:53:44;;;;;;;1.93;0.90;;;33.80;59.30;;;;;;4868585;29;20929;-75
2022/07/14 13:56:10;;;;;;;2.00;1.43;;;34.10;59.20;;;;;;4871025;28;20441;-74
2022/07/14 13:58:36;;;;;;;3.03;1.20;;;34.40;58.80;;;;;;4869531;29;20803;-73
2022/07/14 14:01:03;;;;;;;5.73;1.50;;;34.30;58.10;;;;;;4869433;29;20551;-74
2022/07/14 14:03:29;;;;;;;1.40;1.27;;;33.90;57.90;;;;;;4870858;28;20213;-75
2022/07/14 14:06:02;;;;;;;2.37;1.40;;;33.60;58.20;;;;;;4868101;29;20934;-75
2022/07/14 14:08:31;;;;;;;6.53;1.90;;;33.40;59.20;;;;;;4869595;28;20488;-74
2022/07/14 14:10:57;;;;;;;5.17;1.10;;;33.40;59.10;;;;;;4887169;29;20481;-74
2022/07/14 14:13:27;;;;;;;1.73;1.37;;;33.30;59.00;;;;;;4884809;29;20512;-74
2022/07/14 14:15:53;;;;;;;1.73;1.63;;;33.30;59.60;;;;;;4884456;29;20450;-74
2022/07/14 14:18:26;;;;;;;1.77;1.23;;;33.30;59.30;;;;;;4887675;29;20855;-74
2022/07/14 14:20:52;;;;;;;3.40;1.60;;;33.30;59.30;;;;;;4885625;29;20484;-75
2022/07/14 14:23:18;;;;;;;6.83;1.90;;;33.30;59.80;;;;;;4881836;29;20480;-75
2022/07/14 14:25:44;;;;;;;1.87;1.10;;;33.30;60.00;;;;;;4881544;29;20763;-74
2022/07/14 14:28:11;;;;;;;7.23;1.83;;;33.40;60.40;;;;;;4889521;28;20217;-76
2022/07/14 14:30:37;;;;;;;5.03;1.83;;;33.50;60.90;;;;;;4886352;29;20476;-73
2022/07/14 14:33:04;;;;;;;1.67;1.40;;;33.60;60.00;;;;;;4878907;29;20490;-76
2022/07/14 14:35:30;;;;;;;4.00;1.63;;;33.60;60.20;;;;;;4879034;29;20482;-74